sensor_id;sensor_type;location;lat;lon;timestamp;P1;durP1;ratioP1;P2;durP2;ratioP2
35462;SDS011;21578;47.892;9.970;2024-02-28T00:01:50;23.80;;;15.50;;
35462;SDS011;21578;47.892;9.970;2024-02-28T00:06:38;22.27;;;15.20;;
35462;SDS011;21578;47.892;9.970;2024-02-28T00:11:24;21.67;;;15.17;;
35462;SDS011;21578;47.892;9.970;2024-02-28T00:16:11;20.80;;;14.67;;
35462;SDS011;21578;47.892;9.970;2024-02-28T00:20:58;21.63;;;15.47;;
35462;SDS011;21578;47.892;9.970;2024-02-28T00:25:46;22.00;;;15.37;;
35462;SDS011;21578;47.892;9.970;2024-02-28T00:30:33;20.90;;;15.07;;
35462;SDS011;21578;47.892;9.970;2024-02-28T00:35:20;20.20;;;14.27;;
35462;SDS011;21578;47.892;9.970;2024-02-28T00:40:08;19.67;;;15.00;;
35462;SDS011;21578;47.892;9.970;2024-02-28T00:44:56;22.40;;;15.17;;
35462;SDS011;21578;47.892;9.970;2024-02-28T00:49:43;23.67;;;16.30;;
35462;SDS011;21578;47.892;9.970;2024-02-28T00:54:30;21.73;;;14.10;;
35462;SDS011;21578;47.892;9.970;2024-02-28T00:59:17;23.10;;;15.27;;
35462;SDS011;21578;47.892;9.970;2024-02-28T01:04:05;23.17;;;15.53;;
35462;SDS011;21578;47.892;9.970;2024-02-28T01:08:52;25.50;;;17.03;;
35462;SDS011;21578;47.892;9.970;2024-02-28T01:13:39;23.60;;;16.50;;
35462;SDS011;21578;47.892;9.970;2024-02-28T01:18:26;22.07;;;15.30;;
35462;SDS011;21578;47.892;9.970;2024-02-28T01:23:17;25.60;;;16.53;;
35462;SDS011;21578;47.892;9.970;2024-02-28T01:28:03;24.03;;;16.90;;
35462;SDS011;21578;47.892;9.970;2024-02-28T01:32:51;23.70;;;16.30;;
35462;SDS011;21578;47.892;9.970;2024-02-28T01:37:37;23.67;;;17.00;;
35462;SDS011;21578;47.892;9.970;2024-02-28T01:42:25;25.80;;;17.03;;
35462;SDS011;21578;47.892;9.970;2024-02-28T01:47:12;26.27;;;16.90;;
35462;SDS011;21578;47.892;9.970;2024-02-28T01:52:00;28.40;;;17.90;;
35462;SDS011;21578;47.892;9.970;2024-02-28T01:56:47;26.17;;;17.33;;
35462;SDS011;21578;47.892;9.970;2024-02-28T02:01:35;25.13;;;16.90;;
35462;SDS011;21578;47.892;9.970;2024-02-28T02:06:22;24.00;;;16.53;;
35462;SDS011;21578;47.892;9.970;2024-02-28T02:11:09;25.57;;;16.87;;
35462;SDS011;21578;47.892;9.970;2024-02-28T02:15:56;26.90;;;17.40;;
35462;SDS011;21578;47.892;9.970;2024-02-28T02:20:46;26.00;;;17.23;;
35462;SDS011;21578;47.892;9.970;2024-02-28T02:25:44;29.67;;;16.93;;
35462;SDS011;21578;47.892;9.970;2024-02-28T02:30:31;28.27;;;16.90;;
35462;SDS011;21578;47.892;9.970;2024-02-28T02:35:17;30.47;;;18.07;;
35462;SDS011;21578;47.892;9.970;2024-02-28T02:40:04;26.30;;;17.53;;
35462;SDS011;21578;47.892;9.970;2024-02-28T02:44:53;26.03;;;17.57;;
35462;SDS011;21578;47.892;9.970;2024-02-28T02:49:40;26.47;;;17.90;;
35462;SDS011;21578;47.892;9.970;2024-02-28T02:54:26;27.30;;;16.77;;
35462;SDS011;21578;47.892;9.970;2024-02-28T02:59:13;25.57;;;17.47;;
35462;SDS011;21578;47.892;9.970;2024-02-28T03:04:01;29.10;;;17.77;;
35462;SDS011;21578;47.892;9.970;2024-02-28T03:08:48;30.17;;;18.13;;
35462;SDS011;21578;47.892;9.970;2024-02-28T03:13:34;28.17;;;18.33;;
35462;SDS011;21578;47.892;9.970;2024-02-28T03:18:21;26.73;;;17.20;;
35462;SDS011;21578;47.892;9.970;2024-02-28T03:23:09;28.47;;;18.17;;
35462;SDS011;21578;47.892;9.970;2024-02-28T03:27:56;26.63;;;17.90;;
35462;SDS011;21578;47.892;9.970;2024-02-28T03:32:42;30.40;;;18.37;;
35462;SDS011;21578;47.892;9.970;2024-02-28T03:37:29;28.20;;;17.70;;
35462;SDS011;21578;47.892;9.970;2024-02-28T03:42:17;31.33;;;18.27;;
35462;SDS011;21578;47.892;9.970;2024-02-28T03:47:04;28.23;;;18.20;;
35462;SDS011;21578;47.892;9.970;2024-02-28T03:51:51;33.53;;;18.77;;
35462;SDS011;21578;47.892;9.970;2024-02-28T03:56:38;30.23;;;17.60;;
35462;SDS011;21578;47.892;9.970;2024-02-28T04:01:26;28.03;;;18.43;;
35462;SDS011;21578;47.892;9.970;2024-02-28T04:06:12;26.43;;;17.17;;
35462;SDS011;21578;47.892;9.970;2024-02-28T04:10:59;32.67;;;18.87;;
35462;SDS011;21578;47.892;9.970;2024-02-28T04:15:46;28.20;;;17.87;;
35462;SDS011;21578;47.892;9.970;2024-02-28T04:20:34;30.57;;;19.57;;
35462;SDS011;21578;47.892;9.970;2024-02-28T04:25:21;32.23;;;20.20;;
35462;SDS011;21578;47.892;9.970;2024-02-28T04:30:07;31.80;;;19.07;;
35462;SDS011;21578;47.892;9.970;2024-02-28T04:34:54;29.37;;;18.70;;
35462;SDS011;21578;47.892;9.970;2024-02-28T04:39:42;29.97;;;18.33;;
35462;SDS011;21578;47.892;9.970;2024-02-28T04:44:29;30.27;;;19.00;;
35462;SDS011;21578;47.892;9.970;2024-02-28T04:49:16;33.43;;;22.10;;
35462;SDS011;21578;47.892;9.970;2024-02-28T04:54:02;31.63;;;19.73;;
35462;SDS011;21578;47.892;9.970;2024-02-28T04:58:51;31.17;;;19.53;;
35462;SDS011;21578;47.892;9.970;2024-02-28T05:03:37;31.67;;;19.47;;
35462;SDS011;21578;47.892;9.970;2024-02-28T05:08:24;32.33;;;19.53;;
35462;SDS011;21578;47.892;9.970;2024-02-28T05:13:13;35.37;;;19.83;;
35462;SDS011;21578;47.892;9.970;2024-02-28T05:18:01;32.77;;;20.07;;
35462;SDS011;21578;47.892;9.970;2024-02-28T05:22:48;34.30;;;19.80;;
35462;SDS011;21578;47.892;9.970;2024-02-28T05:27:35;34.93;;;20.13;;
35462;SDS011;21578;47.892;9.970;2024-02-28T05:32:22;37.73;;;21.23;;
35462;SDS011;21578;47.892;9.970;2024-02-28T05:37:10;32.63;;;19.43;;
35462;SDS011;21578;47.892;9.970;2024-02-28T05:41:57;33.60;;;19.90;;
35462;SDS011;21578;47.892;9.970;2024-02-28T05:46:43;31.87;;;20.23;;
35462;SDS011;21578;47.892;9.970;2024-02-28T05:51:30;34.47;;;19.97;;
35462;SDS011;21578;47.892;9.970;2024-02-28T05:56:18;37.20;;;20.30;;
35462;SDS011;21578;47.892;9.970;2024-02-28T06:01:05;34.77;;;20.27;;
35462;SDS011;21578;47.892;9.970;2024-02-28T06:05:53;35.53;;;21.33;;
35462;SDS011;21578;47.892;9.970;2024-02-28T06:10:42;35.37;;;20.07;;
35462;SDS011;21578;47.892;9.970;2024-02-28T06:15:33;38.47;;;21.33;;
35462;SDS011;21578;47.892;9.970;2024-02-28T06:20:19;38.60;;;22.33;;
35462;SDS011;21578;47.892;9.970;2024-02-28T06:25:06;40.13;;;22.07;;
35462;SDS011;21578;47.892;9.970;2024-02-28T06:30:03;45.37;;;22.93;;
35462;SDS011;21578;47.892;9.970;2024-02-28T06:34:51;42.50;;;23.03;;
35462;SDS011;21578;47.892;9.970;2024-02-28T06:39:38;49.30;;;24.27;;
35462;SDS011;21578;47.892;9.970;2024-02-28T06:44:25;67.70;;;39.03;;
35462;SDS011;21578;47.892;9.970;2024-02-28T06:49:12;52.37;;;29.97;;
35462;SDS011;21578;47.892;9.970;2024-02-28T06:54:00;57.63;;;31.10;;
35462;SDS011;21578;47.892;9.970;2024-02-28T06:58:46;43.37;;;23.57;;
35462;SDS011;21578;47.892;9.970;2024-02-28T07:03:33;43.33;;;23.57;;
35462;SDS011;21578;47.892;9.970;2024-02-28T07:08:20;39.40;;;21.33;;
35462;SDS011;21578;47.892;9.970;2024-02-28T07:13:08;41.63;;;22.27;;
35462;SDS011;21578;47.892;9.970;2024-02-28T07:17:55;44.80;;;22.60;;
35462;SDS011;21578;47.892;9.970;2024-02-28T07:22:42;43.77;;;24.43;;
35462;SDS011;21578;47.892;9.970;2024-02-28T07:27:29;45.83;;;23.13;;
35462;SDS011;21578;47.892;9.970;2024-02-28T07:32:17;61.63;;;35.37;;
35462;SDS011;21578;47.892;9.970;2024-02-28T07:37:03;43.57;;;23.20;;
35462;SDS011;21578;47.892;9.970;2024-02-28T07:41:50;46.93;;;25.87;;
35462;SDS011;21578;47.892;9.970;2024-02-28T07:46:37;43.10;;;22.97;;
35462;SDS011;21578;47.892;9.970;2024-02-28T07:51:25;49.83;;;28.83;;
35462;SDS011;21578;47.892;9.970;2024-02-28T07:56:15;43.37;;;21.33;;
35462;SDS011;21578;47.892;9.970;2024-02-28T08:01:02;45.30;;;24.83;;
35462;SDS011;21578;47.892;9.970;2024-02-28T08:05:49;51.37;;;25.10;;
35462;SDS011;21578;47.892;9.970;2024-02-28T08:10:38;53.33;;;25.40;;
35462;SDS011;21578;47.892;9.970;2024-02-28T08:15:24;51.00;;;24.70;;
35462;SDS011;21578;47.892;9.970;2024-02-28T08:20:11;54.63;;;26.90;;
35462;SDS011;21578;47.892;9.970;2024-02-28T08:24:58;54.27;;;26.83;;
35462;SDS011;21578;47.892;9.970;2024-02-28T08:29:46;55.97;;;26.27;;
35462;SDS011;21578;47.892;9.970;2024-02-28T08:34:33;59.10;;;27.90;;
35462;SDS011;21578;47.892;9.970;2024-02-28T08:39:20;56.93;;;25.80;;
35462;SDS011;21578;47.892;9.970;2024-02-28T08:44:08;65.30;;;31.73;;
35462;SDS011;21578;47.892;9.970;2024-02-28T08:48:56;54.57;;;25.17;;
35462;SDS011;21578;47.892;9.970;2024-02-28T08:53:43;56.87;;;25.73;;
35462;SDS011;21578;47.892;9.970;2024-02-28T08:58:29;53.43;;;25.10;;
35462;SDS011;21578;47.892;9.970;2024-02-28T09:03:16;57.70;;;26.10;;
35462;SDS011;21578;47.892;9.970;2024-02-28T09:08:06;59.73;;;28.80;;
35462;SDS011;21578;47.892;9.970;2024-02-28T09:12:52;51.23;;;25.80;;
35462;SDS011;21578;47.892;9.970;2024-02-28T09:17:39;51.77;;;24.70;;
35462;SDS011;21578;47.892;9.970;2024-02-28T09:22:26;44.97;;;23.10;;
35462;SDS011;21578;47.892;9.970;2024-02-28T09:27:14;47.17;;;22.97;;
35462;SDS011;21578;47.892;9.970;2024-02-28T09:32:03;47.60;;;24.37;;
35462;SDS011;21578;47.892;9.970;2024-02-28T09:36:50;47.17;;;23.37;;
35462;SDS011;21578;47.892;9.970;2024-02-28T09:41:37;43.50;;;21.43;;
35462;SDS011;21578;47.892;9.970;2024-02-28T09:46:25;43.33;;;22.60;;
35462;SDS011;21578;47.892;9.970;2024-02-28T09:51:11;36.90;;;19.17;;
35462;SDS011;21578;47.892;9.970;2024-02-28T09:55:59;43.57;;;22.10;;
35462;SDS011;21578;47.892;9.970;2024-02-28T10:00:46;37.07;;;18.47;;
35462;SDS011;21578;47.892;9.970;2024-02-28T10:05:35;35.33;;;19.20;;
35462;SDS011;21578;47.892;9.970;2024-02-28T10:10:23;37.40;;;20.57;;
35462;SDS011;21578;47.892;9.970;2024-02-28T10:15:10;106.10;;;55.27;;
35462;SDS011;21578;47.892;9.970;2024-02-28T10:19:57;39.30;;;20.37;;
35462;SDS011;21578;47.892;9.970;2024-02-28T10:24:46;36.63;;;20.30;;
35462;SDS011;21578;47.892;9.970;2024-02-28T10:29:32;43.73;;;24.93;;
35462;SDS011;21578;47.892;9.970;2024-02-28T10:34:19;44.47;;;23.07;;
35462;SDS011;21578;47.892;9.970;2024-02-28T10:39:06;52.80;;;28.73;;
35462;SDS011;21578;47.892;9.970;2024-02-28T10:43:55;62.77;;;37.80;;
35462;SDS011;21578;47.892;9.970;2024-02-28T10:48:42;38.57;;;20.23;;
35462;SDS011;21578;47.892;9.970;2024-02-28T10:53:36;37.50;;;20.53;;
35462;SDS011;21578;47.892;9.970;2024-02-28T10:58:24;45.93;;;24.60;;
35462;SDS011;21578;47.892;9.970;2024-02-28T11:03:15;42.33;;;23.10;;
35462;SDS011;21578;47.892;9.970;2024-02-28T11:08:04;47.57;;;24.47;;
35462;SDS011;21578;47.892;9.970;2024-02-28T11:12:54;47.47;;;24.73;;
35462;SDS011;21578;47.892;9.970;2024-02-28T11:17:41;45.60;;;23.37;;
35462;SDS011;21578;47.892;9.970;2024-02-28T11:22:29;46.07;;;23.30;;
35462;SDS011;21578;47.892;9.970;2024-02-28T11:27:20;46.43;;;23.20;;
35462;SDS011;21578;47.892;9.970;2024-02-28T11:32:07;44.23;;;22.83;;
35462;SDS011;21578;47.892;9.970;2024-02-28T11:36:55;52.57;;;24.80;;
35462;SDS011;21578;47.892;9.970;2024-02-28T11:41:44;44.73;;;23.97;;
35462;SDS011;21578;47.892;9.970;2024-02-28T11:46:32;46.00;;;24.17;;
35462;SDS011;21578;47.892;9.970;2024-02-28T11:51:21;51.13;;;25.63;;
35462;SDS011;21578;47.892;9.970;2024-02-28T11:56:08;56.10;;;29.53;;
35462;SDS011;21578;47.892;9.970;2024-02-28T12:00:57;43.97;;;23.10;;
35462;SDS011;21578;47.892;9.970;2024-02-28T12:05:43;51.37;;;26.77;;
35462;SDS011;21578;47.892;9.970;2024-02-28T12:10:30;49.47;;;24.30;;
35462;SDS011;21578;47.892;9.970;2024-02-28T12:15:18;46.20;;;24.20;;
35462;SDS011;21578;47.892;9.970;2024-02-28T12:20:07;48.30;;;24.03;;
35462;SDS011;21578;47.892;9.970;2024-02-28T12:24:55;55.10;;;30.23;;
35462;SDS011;21578;47.892;9.970;2024-02-28T12:29:41;45.00;;;23.30;;
35462;SDS011;21578;47.892;9.970;2024-02-28T12:34:28;59.17;;;33.33;;
35462;SDS011;21578;47.892;9.970;2024-02-28T12:39:16;62.50;;;32.47;;
35462;SDS011;21578;47.892;9.970;2024-02-28T12:44:03;49.40;;;27.63;;
35462;SDS011;21578;47.892;9.970;2024-02-28T12:48:50;45.20;;;23.03;;
35462;SDS011;21578;47.892;9.970;2024-02-28T12:53:36;42.30;;;22.40;;
35462;SDS011;21578;47.892;9.970;2024-02-28T12:58:24;46.00;;;21.87;;
35462;SDS011;21578;47.892;9.970;2024-02-28T13:03:11;48.43;;;23.07;;
35462;SDS011;21578;47.892;9.970;2024-02-28T13:07:58;45.73;;;22.80;;
35462;SDS011;21578;47.892;9.970;2024-02-28T13:12:44;42.23;;;20.60;;
35462;SDS011;21578;47.892;9.970;2024-02-28T13:17:32;36.40;;;19.67;;
35462;SDS011;21578;47.892;9.970;2024-02-28T13:22:19;34.47;;;18.80;;
35462;SDS011;21578;47.892;9.970;2024-02-28T13:27:06;33.87;;;18.27;;
35462;SDS011;21578;47.892;9.970;2024-02-28T13:31:52;30.80;;;17.73;;
35462;SDS011;21578;47.892;9.970;2024-02-28T13:36:41;27.80;;;15.37;;
35462;SDS011;21578;47.892;9.970;2024-02-28T13:41:28;29.43;;;16.13;;
35462;SDS011;21578;47.892;9.970;2024-02-28T13:46:15;30.30;;;16.63;;
35462;SDS011;21578;47.892;9.970;2024-02-28T13:51:04;27.53;;;16.63;;
35462;SDS011;21578;47.892;9.970;2024-02-28T13:55:52;25.63;;;15.90;;
35462;SDS011;21578;47.892;9.970;2024-02-28T14:00:39;30.37;;;17.10;;
35462;SDS011;21578;47.892;9.970;2024-02-28T14:05:27;30.33;;;17.60;;
35462;SDS011;21578;47.892;9.970;2024-02-28T14:10:14;25.73;;;15.93;;
35462;SDS011;21578;47.892;9.970;2024-02-28T14:15:02;26.50;;;15.53;;
35462;SDS011;21578;47.892;9.970;2024-02-28T14:19:49;28.17;;;17.43;;
35462;SDS011;21578;47.892;9.970;2024-02-28T14:24:36;28.63;;;16.87;;
35462;SDS011;21578;47.892;9.970;2024-02-28T14:29:24;26.57;;;15.33;;
35462;SDS011;21578;47.892;9.970;2024-02-28T14:34:12;29.53;;;18.70;;
35462;SDS011;21578;47.892;9.970;2024-02-28T14:38:58;29.33;;;16.37;;
35462;SDS011;21578;47.892;9.970;2024-02-28T14:43:45;31.17;;;18.23;;
35462;SDS011;21578;47.892;9.970;2024-02-28T14:53:23;26.07;;;16.57;;
35462;SDS011;21578;47.892;9.970;2024-02-28T14:58:10;27.77;;;16.67;;
35462;SDS011;21578;47.892;9.970;2024-02-28T15:02:57;26.57;;;16.60;;
35462;SDS011;21578;47.892;9.970;2024-02-28T15:07:44;28.57;;;16.60;;
35462;SDS011;21578;47.892;9.970;2024-02-28T15:12:32;28.37;;;16.83;;
35462;SDS011;21578;47.892;9.970;2024-02-28T15:17:19;24.87;;;16.03;;
35462;SDS011;21578;47.892;9.970;2024-02-28T15:22:06;26.30;;;16.23;;
35462;SDS011;21578;47.892;9.970;2024-02-28T15:26:53;22.63;;;14.50;;
35462;SDS011;21578;47.892;9.970;2024-02-28T15:31:42;25.80;;;15.93;;
35462;SDS011;21578;47.892;9.970;2024-02-28T15:36:29;24.13;;;15.37;;
35462;SDS011;21578;47.892;9.970;2024-02-28T15:41:16;23.40;;;15.23;;
35462;SDS011;21578;47.892;9.970;2024-02-28T15:46:03;24.60;;;14.87;;
35462;SDS011;21578;47.892;9.970;2024-02-28T15:50:52;23.13;;;14.17;;
35462;SDS011;21578;47.892;9.970;2024-02-28T15:55:40;25.40;;;14.90;;
35462;SDS011;21578;47.892;9.970;2024-02-28T16:00:27;24.17;;;15.23;;
35462;SDS011;21578;47.892;9.970;2024-02-28T16:05:16;24.37;;;14.53;;
35462;SDS011;21578;47.892;9.970;2024-02-28T16:10:06;24.73;;;14.60;;
35462;SDS011;21578;47.892;9.970;2024-02-28T16:14:54;24.50;;;15.53;;
35462;SDS011;21578;47.892;9.970;2024-02-28T16:19:41;27.23;;;15.90;;
35462;SDS011;21578;47.892;9.970;2024-02-28T16:24:28;27.93;;;16.13;;
35462;SDS011;21578;47.892;9.970;2024-02-28T16:29:17;28.30;;;17.23;;
35462;SDS011;21578;47.892;9.970;2024-02-28T16:34:04;29.87;;;18.53;;
35462;SDS011;21578;47.892;9.970;2024-02-28T16:38:51;28.60;;;17.67;;
35462;SDS011;21578;47.892;9.970;2024-02-28T16:43:41;31.37;;;18.23;;
35462;SDS011;21578;47.892;9.970;2024-02-28T16:48:32;31.13;;;17.90;;
35462;SDS011;21578;47.892;9.970;2024-02-28T16:53:19;31.47;;;17.50;;
35462;SDS011;21578;47.892;9.970;2024-02-28T16:58:06;29.63;;;17.23;;
35462;SDS011;21578;47.892;9.970;2024-02-28T17:02:53;26.60;;;16.47;;
35462;SDS011;21578;47.892;9.970;2024-02-28T17:07:42;30.93;;;17.57;;
35462;SDS011;21578;47.892;9.970;2024-02-28T17:12:28;31.60;;;16.73;;
35462;SDS011;21578;47.892;9.970;2024-02-28T17:17:15;30.17;;;16.63;;
35462;SDS011;21578;47.892;9.970;2024-02-28T17:22:03;29.13;;;16.80;;
35462;SDS011;21578;47.892;9.970;2024-02-28T17:26:53;30.97;;;17.40;;
35462;SDS011;21578;47.892;9.970;2024-02-28T17:31:41;28.10;;;17.07;;
35462;SDS011;21578;47.892;9.970;2024-02-28T17:36:29;29.90;;;16.73;;
35462;SDS011;21578;47.892;9.970;2024-02-28T17:41:16;33.20;;;18.00;;
35462;SDS011;21578;47.892;9.970;2024-02-28T17:46:04;31.73;;;17.93;;
35462;SDS011;21578;47.892;9.970;2024-02-28T17:50:51;32.53;;;18.33;;
35462;SDS011;21578;47.892;9.970;2024-02-28T17:55:38;31.83;;;18.50;;
35462;SDS011;21578;47.892;9.970;2024-02-28T18:00:25;33.70;;;18.30;;
35462;SDS011;21578;47.892;9.970;2024-02-28T18:05:13;31.40;;;17.80;;
35462;SDS011;21578;47.892;9.970;2024-02-28T18:10:00;36.10;;;18.90;;
35462;SDS011;21578;47.892;9.970;2024-02-28T18:14:48;35.13;;;18.70;;
35462;SDS011;21578;47.892;9.970;2024-02-28T18:19:35;35.87;;;19.17;;
35462;SDS011;21578;47.892;9.970;2024-02-28T18:24:25;37.23;;;19.07;;
35462;SDS011;21578;47.892;9.970;2024-02-28T18:29:12;34.77;;;18.83;;
35462;SDS011;21578;47.892;9.970;2024-02-28T18:33:59;32.43;;;18.57;;
35462;SDS011;21578;47.892;9.970;2024-02-28T18:38:46;34.80;;;19.17;;
35462;SDS011;21578;47.892;9.970;2024-02-28T18:43:34;31.07;;;17.70;;
35462;SDS011;21578;47.892;9.970;2024-02-28T18:48:24;33.07;;;18.33;;
35462;SDS011;21578;47.892;9.970;2024-02-28T18:53:11;32.07;;;17.97;;
35462;SDS011;21578;47.892;9.970;2024-02-28T18:57:58;31.93;;;17.90;;
35462;SDS011;21578;47.892;9.970;2024-02-28T19:02:47;33.10;;;18.23;;
35462;SDS011;21578;47.892;9.970;2024-02-28T19:07:34;37.13;;;19.00;;
35462;SDS011;21578;47.892;9.970;2024-02-28T19:12:21;37.23;;;19.20;;
35462;SDS011;21578;47.892;9.970;2024-02-28T19:17:08;35.77;;;20.07;;
35462;SDS011;21578;47.892;9.970;2024-02-28T19:21:57;35.23;;;19.23;;
35462;SDS011;21578;47.892;9.970;2024-02-28T19:26:44;32.40;;;18.73;;
35462;SDS011;21578;47.892;9.970;2024-02-28T19:31:31;38.30;;;20.57;;
35462;SDS011;21578;47.892;9.970;2024-02-28T19:36:17;33.87;;;20.70;;
35462;SDS011;21578;47.892;9.970;2024-02-28T19:41:06;37.97;;;20.67;;
35462;SDS011;21578;47.892;9.970;2024-02-28T19:45:53;35.70;;;20.50;;
35462;SDS011;21578;47.892;9.970;2024-02-28T19:50:40;35.03;;;21.83;;
35462;SDS011;21578;47.892;9.970;2024-02-28T19:55:27;36.80;;;21.07;;
35462;SDS011;21578;47.892;9.970;2024-02-28T20:00:16;45.73;;;27.03;;
35462;SDS011;21578;47.892;9.970;2024-02-28T20:05:04;42.83;;;25.30;;
35462;SDS011;21578;47.892;9.970;2024-02-28T20:09:51;38.43;;;21.33;;
35462;SDS011;21578;47.892;9.970;2024-02-28T20:14:38;46.67;;;27.57;;
35462;SDS011;21578;47.892;9.970;2024-02-28T20:19:27;42.57;;;24.20;;
35462;SDS011;21578;47.892;9.970;2024-02-28T20:24:14;43.57;;;24.43;;
35462;SDS011;21578;47.892;9.970;2024-02-28T20:29:01;36.87;;;20.20;;
35462;SDS011;21578;47.892;9.970;2024-02-28T20:33:48;36.43;;;21.37;;
35462;SDS011;21578;47.892;9.970;2024-02-28T20:38:36;39.83;;;21.27;;
35462;SDS011;21578;47.892;9.970;2024-02-28T20:43:23;38.47;;;21.53;;
35462;SDS011;21578;47.892;9.970;2024-02-28T20:48:10;41.73;;;23.10;;
35462;SDS011;21578;47.892;9.970;2024-02-28T21:25:44;44.60;;;23.83;;
35462;SDS011;21578;47.892;9.970;2024-02-28T21:30:31;48.87;;;23.60;;
35462;SDS011;21578;47.892;9.970;2024-02-28T21:35:18;43.07;;;23.03;;
35462;SDS011;21578;47.892;9.970;2024-02-28T21:40:06;44.10;;;23.07;;
35462;SDS011;21578;47.892;9.970;2024-02-28T21:44:55;44.07;;;24.40;;
35462;SDS011;21578;47.892;9.970;2024-02-28T21:49:42;44.87;;;23.33;;
35462;SDS011;21578;47.892;9.970;2024-02-28T21:54:29;42.40;;;22.03;;
35462;SDS011;21578;47.892;9.970;2024-02-28T21:59:15;44.20;;;24.23;;
35462;SDS011;21578;47.892;9.970;2024-02-28T22:04:04;43.33;;;23.17;;
35462;SDS011;21578;47.892;9.970;2024-02-28T22:08:51;49.50;;;25.60;;
35462;SDS011;21578;47.892;9.970;2024-02-28T22:13:41;41.70;;;22.57;;
35462;SDS011;21578;47.892;9.970;2024-02-28T22:18:28;46.23;;;23.47;;
35462;SDS011;21578;47.892;9.970;2024-02-28T22:23:16;45.07;;;23.27;;
35462;SDS011;21578;47.892;9.970;2024-02-28T22:28:03;41.27;;;22.83;;
35462;SDS011;21578;47.892;9.970;2024-02-28T22:32:50;44.07;;;23.27;;
35462;SDS011;21578;47.892;9.970;2024-02-28T22:37:37;45.13;;;23.40;;
35462;SDS011;21578;47.892;9.970;2024-02-28T22:42:26;45.27;;;24.20;;
35462;SDS011;21578;47.892;9.970;2024-02-28T22:47:13;47.87;;;23.73;;
35462;SDS011;21578;47.892;9.970;2024-02-28T22:51:59;47.23;;;23.93;;
35462;SDS011;21578;47.892;9.970;2024-02-28T22:56:47;50.07;;;25.07;;
35462;SDS011;21578;47.892;9.970;2024-02-28T23:01:35;46.20;;;24.57;;
35462;SDS011;21578;47.892;9.970;2024-02-28T23:06:22;52.33;;;25.30;;
35462;SDS011;21578;47.892;9.970;2024-02-28T23:11:09;46.00;;;24.30;;
35462;SDS011;21578;47.892;9.970;2024-02-28T23:15:56;45.77;;;23.27;;
35462;SDS011;21578;47.892;9.970;2024-02-28T23:20:44;44.80;;;24.27;;
35462;SDS011;21578;47.892;9.970;2024-02-28T23:25:31;47.07;;;24.30;;
35462;SDS011;21578;47.892;9.970;2024-02-28T23:30:19;45.57;;;24.60;;
35462;SDS011;21578;47.892;9.970;2024-02-28T23:35:07;48.80;;;24.03;;
35462;SDS011;21578;47.892;9.970;2024-02-28T23:39:56;43.27;;;23.03;;
35462;SDS011;21578;47.892;9.970;2024-02-28T23:44:43;37.10;;;20.97;;
35462;SDS011;21578;47.892;9.970;2024-02-28T23:49:30;43.00;;;22.33;;
35462;SDS011;21578;47.892;9.970;2024-02-28T23:54:17;40.87;;;22.17;;
35462;SDS011;21578;47.892;9.970;2024-02-28T23:59:05;40.23;;;22.10;;
